createdAt,value
2023-03-18T00:01:01.401Z,100246.84
2023-03-18T00:03:49.262Z,100241.84
2023-03-18T00:06:38.145Z,100239.53
2023-03-18T00:09:24.721Z,100235.78
2023-03-18T00:12:12.708Z,100225.97
2023-03-18T00:14:59.676Z,100235.38
2023-03-18T00:17:46.709Z,100231.00
2023-03-18T00:20:39.440Z,100236.63
2023-03-18T00:23:26.165Z,100235.16
2023-03-18T00:26:12.606Z,100238.50
2023-03-18T00:29:02.704Z,100245.19
2023-03-18T00:31:49.646Z,100236.41
2023-03-18T00:34:35.607Z,100234.72
2023-03-18T00:37:30.361Z,100238.31
2023-03-18T00:40:20.491Z,100229.09
2023-03-18T00:43:08.731Z,100242.66
2023-03-18T00:45:57.461Z,100237.44
2023-03-18T00:48:44.057Z,100245.78
2023-03-18T00:51:32.333Z,100245.59
2023-03-18T00:54:20.799Z,100244.56
2023-03-18T00:57:08.035Z,100245.59
2023-03-18T00:59:55.779Z,100250.19
2023-03-18T01:02:44.100Z,100251.63
2023-03-18T01:05:30.430Z,100252.25
2023-03-18T01:08:17.269Z,100244.31
2023-03-18T01:11:04.913Z,100247.47
2023-03-18T01:13:51.836Z,100245.59
2023-03-18T01:16:38.250Z,100244.56
2023-03-18T01:19:26.608Z,100247.47
2023-03-18T01:22:12.889Z,100254.38
2023-03-18T01:25:05.078Z,100244.75
2023-03-18T01:27:55.852Z,100251.88
2023-03-18T01:30:42.749Z,100249.16
2023-03-18T01:33:30.268Z,100244.75
2023-03-18T01:36:18.534Z,100250.19
2023-03-18T01:39:18.467Z,100259.16
2023-03-18T01:42:06.327Z,100251.84
2023-03-18T01:45:17.978Z,100257.91
2023-03-18T01:48:04.791Z,100260.19
2023-03-18T01:50:55.337Z,100258.72
2023-03-18T01:53:49.548Z,100260.00
2023-03-18T01:56:40.105Z,100257.47
2023-03-18T01:59:30.705Z,100260.78
2023-03-18T02:02:18.868Z,100255.78
2023-03-18T02:05:08.195Z,100252.25
2023-03-18T02:07:54.852Z,100270.81
2023-03-18T02:10:42.864Z,100262.91
2023-03-18T02:13:31.821Z,100270.63
2023-03-18T02:16:22.477Z,100267.09
2023-03-18T02:19:15.733Z,100270.81
2023-03-18T02:22:12.106Z,100270.41
2023-03-18T02:25:12.023Z,100264.38
2023-03-18T02:28:04.105Z,100268.31
2023-03-18T02:30:55.634Z,100272.31
2023-03-18T02:33:43.636Z,100267.03
2023-03-18T02:36:32.670Z,100273.75
2023-03-18T02:39:22.473Z,100272.25
2023-03-18T02:42:13.017Z,100278.75
2023-03-18T02:45:04.451Z,100285.25
2023-03-18T02:48:07.061Z,100283.97
2023-03-18T02:50:54.612Z,100274.19
2023-03-18T02:53:41.925Z,100277.28
2023-03-18T02:56:28.574Z,100286.47
2023-03-18T02:59:15.935Z,100294.19
2023-03-18T03:02:03.820Z,100294.81
2023-03-18T03:04:50.472Z,100298.78
2023-03-18T03:07:37.971Z,100292.75
2023-03-18T03:10:27.440Z,100297.34
2023-03-18T03:13:15.646Z,100300.47
2023-03-18T03:16:02.353Z,100300.25
2023-03-18T03:18:50.585Z,100308.81
2023-03-18T03:21:37.212Z,100309.66
2023-03-18T03:24:23.986Z,100320.69
2023-03-18T03:27:10.704Z,100320.91
2023-03-18T03:29:57.176Z,100309.00
2023-03-18T03:32:43.498Z,100314.88
2023-03-18T03:35:33.030Z,100321.97
2023-03-18T03:38:19.729Z,100318.81
2023-03-18T03:41:06.433Z,100330.53
2023-03-18T03:43:53.096Z,100324.66
2023-03-18T03:46:39.181Z,100325.31
2023-03-18T03:49:26.113Z,100332.19
2023-03-18T03:52:14.298Z,100333.44
2023-03-18T03:55:05.958Z,100342.41
2023-03-18T03:57:53.261Z,100345.53
2023-03-18T04:00:39.612Z,100338.00
2023-03-18T04:03:26.174Z,100346.16
2023-03-18T04:06:13.246Z,100340.31
2023-03-18T04:09:07.771Z,100349.50
2023-03-18T04:11:54.085Z,100340.94
2023-03-18T04:14:40.666Z,100340.94
2023-03-18T04:17:27.243Z,100347.00
2023-03-18T04:20:14.699Z,100355.75
2023-03-18T04:23:01.150Z,100351.56
2023-03-18T04:25:49.339Z,100364.06
2023-03-18T04:28:36.132Z,100362.00
2023-03-18T04:31:25.037Z,100363.25
2023-03-18T04:34:12.023Z,100372.41
2023-03-18T04:36:58.445Z,100375.13
2023-03-18T04:39:47.232Z,100379.13
2023-03-18T04:42:34.858Z,100381.84
2023-03-18T04:45:22.674Z,100389.94
2023-03-18T04:48:12.750Z,100397.47
2023-03-18T04:51:02.038Z,100402.25
2023-03-18T04:53:50.266Z,100407.66
2023-03-18T04:56:37.036Z,100409.16
2023-03-18T04:59:24.969Z,100413.31
2023-03-18T05:02:12.988Z,100430.00
2023-03-18T05:05:01.092Z,100432.72
2023-03-18T05:07:49.688Z,100440.47
2023-03-18T05:10:40.088Z,100450.22
2023-03-18T05:13:28.436Z,100466.69
2023-03-18T05:16:16.482Z,100475.25
2023-03-18T05:19:03.337Z,100490.47
2023-03-18T05:21:50.022Z,100507.78
2023-03-18T05:24:39.073Z,100514.22
2023-03-18T05:27:27.487Z,100528.91
2023-03-18T05:30:19.806Z,100520.38
2023-03-18T05:33:11.495Z,100534.50
2023-03-18T05:36:05.750Z,100541.41
2023-03-18T05:38:58.390Z,100542.47
2023-03-18T05:41:45.229Z,100538.34
2023-03-18T05:44:35.924Z,100537.91
2023-03-18T05:47:24.318Z,100545.47
2023-03-18T05:50:31.066Z,100554.78
2023-03-18T05:53:18.939Z,100565.63
2023-03-18T05:56:08.809Z,100581.75
2023-03-18T05:58:55.375Z,100581.06
2023-03-18T06:01:52.655Z,100597.13
2023-03-18T06:04:40.121Z,100589.09
2023-03-18T06:07:27.926Z,100574.50
2023-03-18T06:10:14.894Z,100565.25
2023-03-18T06:13:03.052Z,100562.38
2023-03-18T06:15:49.421Z,100567.59
2023-03-18T06:18:35.936Z,100572.78
2023-03-18T06:21:22.579Z,100568.72
2023-03-18T06:24:10.699Z,100569.66
2023-03-18T06:26:58.685Z,100581.97
2023-03-18T06:29:45.596Z,100587.63
2023-03-18T06:32:36.756Z,100594.13
2023-03-18T06:35:26.579Z,100596.41
2023-03-18T06:38:14.479Z,100586.88
2023-03-18T06:41:03.422Z,100577.47
2023-03-18T06:43:54.525Z,100585.97
2023-03-18T06:46:44.016Z,100589.91
2023-03-18T06:49:31.740Z,100585.63
2023-03-18T06:52:27.586Z,100596.44
2023-03-18T06:55:19.059Z,100604.72
2023-03-18T06:58:07.163Z,100615.41
2023-03-18T07:01:02.896Z,100621.22
2023-03-18T07:03:54.586Z,100626.34
2023-03-18T07:06:41.326Z,100620.72
2023-03-18T07:09:27.682Z,100637.03
2023-03-18T07:12:17.521Z,100636.13
2023-03-18T07:15:05.685Z,100646.16
2023-03-18T07:17:53.287Z,100652.50
2023-03-18T07:20:40.158Z,100654.81
2023-03-18T07:23:27.657Z,100646.06
2023-03-18T07:26:17.093Z,100654.81
2023-03-18T07:29:05.388Z,100649.47
2023-03-18T07:31:54.007Z,100648.16
2023-03-18T07:34:41.129Z,100645.13
2023-03-18T07:37:28.769Z,100634.72
2023-03-18T07:40:15.545Z,100616.53
2023-03-18T07:43:01.821Z,100609.19
2023-03-18T07:45:48.466Z,100609.84
2023-03-18T07:48:36.158Z,100597.72
2023-03-18T07:51:22.865Z,100592.47
2023-03-18T07:54:09.538Z,100590.81
2023-03-18T07:56:55.958Z,100592.47
2023-03-18T07:59:42.457Z,100569.63
2023-03-18T08:02:29.064Z,100573.03
2023-03-18T08:05:16.676Z,100574.09
2023-03-18T08:08:04.351Z,100563.59
2023-03-18T08:10:51.049Z,100534.69
2023-03-18T08:13:38.407Z,100535.56
2023-03-18T08:16:25.620Z,100519.72
2023-03-18T08:19:12.409Z,100512.97
2023-03-18T08:22:00.002Z,100497.84
2023-03-18T08:24:46.417Z,100485.94
2023-03-18T08:27:33.059Z,100485.38
2023-03-18T08:30:20.176Z,100480.53
2023-03-18T08:33:06.577Z,100478.53
2023-03-18T08:35:53.179Z,100475.59
2023-03-18T08:38:40.719Z,100481.94
2023-03-18T08:41:27.171Z,100489.66
2023-03-18T08:44:13.537Z,100492.16
2023-03-18T08:47:00.394Z,100490.22
2023-03-18T08:49:46.744Z,100495.75
2023-03-18T08:52:33.491Z,100503.78
2023-03-18T08:55:21.390Z,100489.97
2023-03-18T08:58:09.049Z,100489.56
2023-03-18T09:00:55.884Z,100492.19
2023-03-18T09:03:42.521Z,100501.25
2023-03-18T09:06:29.952Z,100498.72
2023-03-18T09:09:16.741Z,100502.88
2023-03-18T09:12:05.683Z,100508.81
2023-03-18T09:14:52.611Z,100506.56
2023-03-18T09:17:56.497Z,100521.84
2023-03-18T09:20:47.393Z,100513.47
2023-03-18T09:23:34.361Z,100505.06
2023-03-18T09:26:20.823Z,100514.31
2023-03-18T09:29:08.744Z,100519.50
2023-03-18T09:31:56.370Z,100525.03
2023-03-18T09:34:43.053Z,100535.19
2023-03-18T09:37:29.360Z,100528.91
2023-03-18T09:40:22.044Z,100542.22
2023-03-18T09:43:21.760Z,100543.06
2023-03-18T09:46:20.240Z,100545.63
2023-03-18T09:49:19.306Z,100531.84
2023-03-18T09:52:18.291Z,100535.63
2023-03-18T09:55:10.346Z,100524.78
2023-03-18T09:58:03.128Z,100532.53
2023-03-18T10:00:52.860Z,100530.25
2023-03-18T10:03:46.725Z,100535.41
2023-03-18T10:06:34.464Z,100532.31
2023-03-18T10:09:26.222Z,100534.63
2023-03-18T10:12:19.127Z,100541.44
2023-03-18T10:15:16.582Z,100534.72
2023-03-18T10:18:11.536Z,100535.84
2023-03-18T10:21:13.015Z,100530.91
2023-03-18T10:24:19.354Z,100532.75
2023-03-18T10:27:15.249Z,100527.13
2023-03-18T10:30:07.373Z,100536.84
2023-03-18T10:33:01.940Z,100537.09
2023-03-18T10:35:53.052Z,100549.22
2023-03-18T10:38:44.723Z,100545.84
2023-03-18T10:41:34.637Z,100550.53
2023-03-18T10:44:25.775Z,100550.97
2023-03-18T10:47:19.026Z,100564.03
2023-03-18T10:50:17.449Z,100579.28
2023-03-18T10:53:13.742Z,100567.94
2023-03-18T10:56:06.047Z,100568.06
2023-03-18T10:58:53.610Z,100568.03
2023-03-18T11:01:41.589Z,100584.22
2023-03-18T11:04:30.594Z,100608.84
2023-03-18T11:07:25.918Z,100613.13
2023-03-18T11:10:19.926Z,100608.88
2023-03-18T11:13:07.685Z,100603.41
2023-03-18T11:15:56.680Z,100609.63
2023-03-18T11:18:46.114Z,100617.00
2023-03-18T11:21:34.458Z,100612.53
2023-03-18T11:24:36.286Z,100633.31
2023-03-18T11:27:26.864Z,100634.31
2023-03-18T11:30:41.033Z,100638.81
2023-03-18T11:33:35.058Z,100648.03
2023-03-18T11:36:25.062Z,100640.97
2023-03-18T11:39:13.878Z,100651.84
2023-03-18T11:42:01.455Z,100654.34
2023-03-18T11:44:49.964Z,100664.66
2023-03-18T11:47:39.060Z,100655.03
2023-03-18T11:50:31.392Z,100660.03
2023-03-18T11:53:28.029Z,100664.00
2023-03-18T11:56:21.170Z,100653.75
2023-03-18T11:59:26.743Z,100659.06
2023-03-18T12:02:27.221Z,100679.03
2023-03-18T12:05:38.499Z,100700.53
2023-03-18T12:08:37.753Z,100705.13
2023-03-18T12:11:34.473Z,100704.94
2023-03-18T12:14:28.608Z,100704.00
2023-03-18T12:17:27.050Z,100702.00
2023-03-18T12:20:40.335Z,100716.72
2023-03-18T12:23:51.150Z,100702.31
2023-03-18T12:26:45.875Z,100700.38
2023-03-18T12:29:56.491Z,100698.22
2023-03-18T12:32:50.776Z,100702.16
2023-03-18T12:35:55.703Z,100704.06
2023-03-18T12:38:56.330Z,100694.28
2023-03-18T12:41:52.662Z,100706.38
2023-03-18T12:44:53.076Z,100696.31
2023-03-18T12:47:45.436Z,100709.53
2023-03-18T12:50:38.142Z,100692.16
2023-03-18T12:53:30.935Z,100703.09
2023-03-18T12:56:21.401Z,100706.03
2023-03-18T12:59:14.077Z,100700.41
2023-03-18T13:02:41.185Z,100695.88
2023-03-18T13:05:38.137Z,100687.44
2023-03-18T13:08:40.530Z,100694.13
2023-03-18T13:11:46.264Z,100692.25
2023-03-18T13:14:44.557Z,100698.41
2023-03-18T13:17:34.023Z,100720.78
2023-03-18T13:20:24.645Z,100730.75
2023-03-18T13:23:23.242Z,100755.84
2023-03-18T13:26:22.171Z,100755.03
2023-03-18T13:29:20.410Z,100758.63
2023-03-18T13:32:25.474Z,100752.34
2023-03-18T13:35:51.498Z,100757.09
2023-03-18T13:39:10.748Z,100746.59
2023-03-18T13:42:22.284Z,100737.75
2023-03-18T13:45:25.354Z,100746.91
2023-03-18T13:48:16.555Z,100731.09
2023-03-18T13:51:20.388Z,100750.88
2023-03-18T13:54:13.484Z,100734.78
2023-03-18T13:57:17.858Z,100731.38
2023-03-18T14:00:32.379Z,100738.94
2023-03-18T14:03:23.144Z,100734.50
2023-03-18T14:06:26.516Z,100733.75
2023-03-18T14:09:36.604Z,100724.84
2023-03-18T14:12:39.719Z,100734.84
2023-03-18T14:15:44.314Z,100733.22
2023-03-18T14:18:36.966Z,100731.72
2023-03-18T14:21:25.612Z,100742.47
2023-03-18T14:24:14.395Z,100757.03
2023-03-18T14:27:15.897Z,100743.81
2023-03-18T14:30:41.175Z,100741.16
2023-03-18T14:33:40.990Z,100745.72
2023-03-18T14:36:47.061Z,100729.53
2023-03-18T14:39:38.474Z,100732.41
2023-03-18T14:42:31.608Z,100739.25
2023-03-18T14:45:24.443Z,100729.13
2023-03-18T14:48:18.281Z,100725.06
2023-03-18T14:51:11.691Z,100717.50
2023-03-18T14:54:04.832Z,100710.81
2023-03-18T14:56:56.582Z,100739.72
2023-03-18T14:59:43.260Z,100731.31
2023-03-18T15:02:35.008Z,100728.28
2023-03-18T15:05:22.710Z,100726.13
2023-03-18T15:08:17.885Z,100725.03
2023-03-18T15:11:07.433Z,100740.56
2023-03-18T15:13:56.878Z,100724.47
2023-03-18T15:16:50.575Z,100744.00
2023-03-18T15:19:37.061Z,100748.50
2023-03-18T15:22:26.038Z,100749.44
2023-03-18T15:25:19.277Z,100742.50
2023-03-18T15:28:07.190Z,100758.69
2023-03-18T15:30:55.858Z,100756.31
2023-03-18T15:33:43.073Z,100749.19
2023-03-18T15:36:29.998Z,100762.84
2023-03-18T15:39:30.618Z,100756.97
2023-03-18T15:42:20.105Z,100752.38
2023-03-18T15:45:07.210Z,100746.75
2023-03-18T15:47:54.274Z,100752.44
2023-03-18T15:50:52.894Z,100748.19
2023-03-18T15:53:43.731Z,100748.44
2023-03-18T15:56:31.134Z,100757.09
2023-03-18T15:59:24.912Z,100757.13
2023-03-18T16:02:15.361Z,100769.44
2023-03-18T16:05:17.925Z,100758.06
2023-03-18T16:08:04.160Z,100785.81
2023-03-18T16:10:52.558Z,100770.06
2023-03-18T16:13:39.901Z,100774.50
2023-03-18T16:16:30.508Z,100777.84
2023-03-18T16:19:24.918Z,100773.28
2023-03-18T16:22:12.494Z,100780.59
2023-03-18T16:25:01.164Z,100767.47
2023-03-18T16:27:50.059Z,100768.19
2023-03-18T16:30:40.058Z,100764.16
2023-03-18T16:33:27.826Z,100765.09
2023-03-18T16:36:24.769Z,100759.78
2023-03-18T16:39:15.989Z,100741.97
2023-03-18T16:42:04.197Z,100726.47
2023-03-18T16:44:50.719Z,100723.19
2023-03-18T16:47:36.832Z,100718.94
2023-03-18T16:50:28.405Z,100718.38
2023-03-18T16:53:18.333Z,100724.78
2023-03-18T16:56:16.427Z,100714.28
2023-03-18T16:59:02.756Z,100694.22
2023-03-18T17:01:50.583Z,100688.59
2023-03-18T17:04:37.609Z,100679.22
2023-03-18T17:07:25.469Z,100684.66
2023-03-18T17:10:13.430Z,100686.19
2023-03-18T17:13:05.774Z,100679.31
2023-03-18T17:15:52.705Z,100672.06
2023-03-18T17:18:38.759Z,100674.81
2023-03-18T17:21:28.415Z,100679.63
2023-03-18T17:24:16.091Z,100674.81
2023-03-18T17:27:02.597Z,100680.97
2023-03-18T17:29:49.026Z,100668.63
2023-03-18T17:32:36.073Z,100670.19
2023-03-18T17:35:24.198Z,100676.63
2023-03-18T17:38:11.075Z,100678.38
2023-03-18T17:41:00.094Z,100681.59
2023-03-18T17:43:47.150Z,100680.91
2023-03-18T17:46:33.771Z,100686.81
2023-03-18T17:49:24.275Z,100681.19
2023-03-18T17:52:12.166Z,100674.91
2023-03-18T17:54:58.646Z,100682.91
2023-03-18T17:57:46.818Z,100691.28
2023-03-18T18:00:33.878Z,100680.44
2023-03-18T18:03:23.036Z,100673.13
2023-03-18T18:06:16.843Z,100680.69
2023-03-18T18:09:04.385Z,100684.66
2023-03-18T18:11:51.011Z,100698.88
2023-03-18T18:14:39.756Z,100688.59
2023-03-18T18:17:25.802Z,100689.69
2023-03-18T18:20:15.185Z,100698.03
2023-03-18T18:23:03.055Z,100706.22
2023-03-18T18:25:49.669Z,100707.66
2023-03-18T18:28:37.706Z,100706.22
2023-03-18T18:31:25.362Z,100707.25
2023-03-18T18:34:12.287Z,100712.06
2023-03-18T18:36:58.778Z,100717.50
2023-03-18T18:39:45.304Z,100726.72
2023-03-18T18:42:31.683Z,100722.31
2023-03-18T18:45:21.152Z,100720.84
2023-03-18T18:48:14.456Z,100713.53
2023-03-18T18:51:02.008Z,100713.72
2023-03-18T18:53:49.094Z,100731.94
2023-03-18T18:56:36.877Z,100726.91
2023-03-18T18:59:27.508Z,100725.44
2023-03-18T19:02:29.789Z,100730.94
2023-03-18T19:05:17.660Z,100724.22
2023-03-18T19:08:04.685Z,100737.59
2023-03-18T19:10:51.690Z,100734.25
2023-03-18T19:13:38.549Z,100729.03
2023-03-18T19:16:30.783Z,100727.94
2023-03-18T19:19:19.920Z,100741.34
2023-03-18T19:22:10.409Z,100736.16
2023-03-18T19:24:57.252Z,100726.09
2023-03-18T19:27:43.599Z,100744.94
2023-03-18T19:30:30.184Z,100755.56
2023-03-18T19:33:18.138Z,100762.94
2023-03-18T19:36:07.868Z,100742.00
2023-03-18T19:39:04.463Z,100717.94
2023-03-18T19:42:00.870Z,100698.06
2023-03-18T19:44:53.817Z,100666.28
2023-03-18T19:47:50.929Z,100633.47
2023-03-18T19:50:49.625Z,100580.16
2023-03-18T19:53:43.326Z,100538.97
2023-03-18T19:56:38.839Z,100518.91
2023-03-18T19:59:38.714Z,100510.34
2023-03-18T20:02:36.840Z,100504.50
2023-03-18T20:05:28.069Z,100519.72
2023-03-18T20:08:19.313Z,100532.44
2023-03-18T20:11:17.341Z,100538.09
2023-03-18T20:14:22.606Z,100561.66
2023-03-18T20:17:30.721Z,100573.31
2023-03-18T20:20:26.315Z,100596.31
2023-03-18T20:23:29.318Z,100608.78
2023-03-18T20:26:19.329Z,100635.13
2023-03-18T20:29:22.811Z,100646.59
2023-03-18T20:32:13.186Z,100666.41
2023-03-18T20:35:03.745Z,100675.78
2023-03-18T20:38:00.549Z,100684.84
2023-03-18T20:40:50.805Z,100698.34
2023-03-18T20:43:42.449Z,100710.75
2023-03-18T20:46:47.802Z,100711.31
2023-03-18T20:49:45.380Z,100717.13
2023-03-18T20:52:37.397Z,100714.19
2023-03-18T20:55:35.330Z,100714.00
2023-03-18T20:58:42.353Z,100712.78
2023-03-18T21:01:39.773Z,100703.78
2023-03-18T21:04:31.481Z,100701.31
2023-03-18T21:07:23.678Z,100675.44
2023-03-18T21:10:19.298Z,100662.97
2023-03-18T21:13:20.423Z,100668.94
2023-03-18T21:16:15.523Z,100659.19
2023-03-18T21:19:11.173Z,100663.75
2023-03-18T21:22:06.502Z,100650.19
2023-03-18T21:24:56.330Z,100647.06
2023-03-18T21:27:48.225Z,100640.63
2023-03-18T21:30:49.886Z,100640.44
2023-03-18T21:33:43.983Z,100632.06
2023-03-18T21:36:37.497Z,100638.94
2023-03-18T21:39:30.218Z,100638.41
2023-03-18T21:42:24.330Z,100635.03
2023-03-18T21:45:16.679Z,100630.03
2023-03-18T21:48:09.582Z,100634.19
2023-03-18T21:51:08.531Z,100627.75
2023-03-18T21:53:58.989Z,100621.22
2023-03-18T21:56:53.079Z,100611.47
2023-03-18T21:59:43.496Z,100616.03
2023-03-18T22:02:38.814Z,100605.38
2023-03-18T22:05:34.812Z,100602.91
2023-03-18T22:08:42.206Z,100596.69
2023-03-18T22:11:34.162Z,100587.28
2023-03-18T22:14:33.793Z,100581.00
2023-03-18T22:17:37.167Z,100583.75
2023-03-18T22:20:35.981Z,100573.94
2023-03-18T22:23:28.358Z,100565.78
2023-03-18T22:26:20.732Z,100562.06
2023-03-18T22:29:27.894Z,100549.50
2023-03-18T22:32:33.689Z,100557.84
2023-03-18T22:35:27.606Z,100562.84
2023-03-18T22:38:21.882Z,100557.03
2023-03-18T22:41:21.998Z,100566.00
2023-03-18T22:44:26.793Z,100570.09
2023-03-18T22:47:32.281Z,100578.50
2023-03-18T22:50:33.518Z,100577.06
2023-03-18T22:53:31.488Z,100567.03
2023-03-18T22:56:30.379Z,100578.28
2023-03-18T22:59:28.677Z,100580.78
2023-03-18T23:02:28.419Z,100577.47
2023-03-18T23:05:25.702Z,100577.66
2023-03-18T23:08:23.617Z,100580.59
2023-03-18T23:11:17.185Z,100588.69
2023-03-18T23:14:21.474Z,100583.09
2023-03-18T23:17:17.418Z,100589.34
2023-03-18T23:20:15.860Z,100592.94
2023-03-18T23:23:09.268Z,100587.03
2023-03-18T23:26:02.324Z,100587.06
2023-03-18T23:29:05.101Z,100589.97
2023-03-18T23:31:59.602Z,100587.03
2023-03-18T23:34:51.915Z,100597.03
2023-03-18T23:37:44.506Z,100598.97
2023-03-18T23:40:40.746Z,100602.00
2023-03-18T23:43:37.135Z,100609.94
2023-03-18T23:46:29.763Z,100619.13
2023-03-18T23:49:23.705Z,100619.75
2023-03-18T23:52:18.130Z,100622.28
2023-03-18T23:55:33.937Z,100638.31
2023-03-18T23:58:38.403Z,100639.34
